sensor_id;sensor_type;location;lat;lon;timestamp;pressure;altitude;pressure_sealevel;temperature;humidity
21824;BME280;11074;48.596;9.238;2023-04-03T00:01:37;98944.56;;;7.85;70.00
21824;BME280;11074;48.596;9.238;2023-04-03T00:04:05;98952.09;;;7.88;70.71
21824;BME280;11074;48.596;9.238;2023-04-03T00:06:31;98947.91;;;7.74;68.46
21824;BME280;11074;48.596;9.238;2023-04-03T00:08:57;98944.06;;;7.63;68.45
21824;BME280;11074;48.596;9.238;2023-04-03T00:11:23;98941.63;;;7.62;68.18
21824;BME280;11074;48.596;9.238;2023-04-03T00:13:49;98940.19;;;7.59;68.84
21824;BME280;11074;48.596;9.238;2023-04-03T00:16:15;98950.00;;;7.59;68.25
21824;BME280;11074;48.596;9.238;2023-04-03T00:18:42;98944.44;;;7.67;69.29
21824;BME280;11074;48.596;9.238;2023-04-03T00:21:10;98942.84;;;7.66;70.35
21824;BME280;11074;48.596;9.238;2023-04-03T00:23:37;98942.84;;;7.66;69.25
21824;BME280;11074;48.596;9.238;2023-04-03T00:26:03;98944.81;;;7.77;68.66
21824;BME280;11074;48.596;9.238;2023-04-03T00:28:28;98939.50;;;7.77;67.25
21824;BME280;11074;48.596;9.238;2023-04-03T00:30:54;98936.47;;;7.67;67.67
21824;BME280;11074;48.596;9.238;2023-04-03T00:33:20;98938.44;;;7.47;67.96
21824;BME280;11074;48.596;9.238;2023-04-03T00:35:48;98949.50;;;7.44;68.31
21824;BME280;11074;48.596;9.238;2023-04-03T00:38:14;98940.78;;;7.61;69.91
21824;BME280;11074;48.596;9.238;2023-04-03T00:40:45;98943.91;;;7.58;69.10
21824;BME280;11074;48.596;9.238;2023-04-03T00:43:16;98946.81;;;7.50;68.84
21824;BME280;11074;48.596;9.238;2023-04-03T00:45:47;98948.25;;;7.46;69.14
21824;BME280;11074;48.596;9.238;2023-04-03T00:48:22;98950.25;;;7.51;68.41
21824;BME280;11074;48.596;9.238;2023-04-03T00:50:51;98941.34;;;7.39;67.90
21824;BME280;11074;48.596;9.238;2023-04-03T00:53:33;98948.31;;;7.33;68.85
21824;BME280;11074;48.596;9.238;2023-04-03T00:56:01;98953.06;;;7.24;68.57
21824;BME280;11074;48.596;9.238;2023-04-03T00:58:40;98940.34;;;7.26;69.84
21824;BME280;11074;48.596;9.238;2023-04-03T01:01:14;98945.47;;;7.28;68.92
21824;BME280;11074;48.596;9.238;2023-04-03T01:03:41;98949.56;;;7.24;68.78
21824;BME280;11074;48.596;9.238;2023-04-03T01:06:07;98940.16;;;7.28;68.73
21824;BME280;11074;48.596;9.238;2023-04-03T01:08:33;98948.91;;;7.42;68.79
21824;BME280;11074;48.596;9.238;2023-04-03T01:10:59;98939.75;;;7.24;68.85
21824;BME280;11074;48.596;9.238;2023-04-03T01:13:29;98947.91;;;7.36;69.20
21824;BME280;11074;48.596;9.238;2023-04-03T01:15:55;98943.03;;;7.26;68.27
21824;BME280;11074;48.596;9.238;2023-04-03T01:18:23;98939.31;;;7.34;70.22
21824;BME280;11074;48.596;9.238;2023-04-03T01:21:11;98940.31;;;7.40;69.30
21824;BME280;11074;48.596;9.238;2023-04-03T01:23:55;98945.50;;;7.21;68.45
21824;BME280;11074;48.596;9.238;2023-04-03T01:26:23;98936.31;;;7.17;68.25
21824;BME280;11074;48.596;9.238;2023-04-03T01:28:49;98949.03;;;7.15;69.45
21824;BME280;11074;48.596;9.238;2023-04-03T01:31:53;98942.47;;;7.11;69.27
21824;BME280;11074;48.596;9.238;2023-04-03T01:34:20;98942.25;;;7.19;69.18
21824;BME280;11074;48.596;9.238;2023-04-03T01:36:46;98947.38;;;7.21;69.22
21824;BME280;11074;48.596;9.238;2023-04-03T01:39:12;98937.31;;;7.23;69.81
21824;BME280;11074;48.596;9.238;2023-04-03T01:41:38;98941.16;;;7.33;69.13
21824;BME280;11074;48.596;9.238;2023-04-03T01:44:04;98946.69;;;7.32;69.46
21824;BME280;11074;48.596;9.238;2023-04-03T01:46:30;98944.72;;;7.21;69.36
21824;BME280;11074;48.596;9.238;2023-04-03T01:48:56;98934.50;;;7.11;68.78
21824;BME280;11074;48.596;9.238;2023-04-03T01:51:22;98941.97;;;6.77;68.51
21824;BME280;11074;48.596;9.238;2023-04-03T01:53:49;98944.03;;;6.75;68.85
21824;BME280;11074;48.596;9.238;2023-04-03T01:56:14;98937.47;;;6.84;69.22
21824;BME280;11074;48.596;9.238;2023-04-03T01:58:40;98946.47;;;6.83;69.24
21824;BME280;11074;48.596;9.238;2023-04-03T02:01:06;98940.13;;;6.84;69.14
21824;BME280;11074;48.596;9.238;2023-04-03T02:03:32;98947.03;;;6.98;69.51
21824;BME280;11074;48.596;9.238;2023-04-03T02:05:58;98942.53;;;6.98;68.92
21824;BME280;11074;48.596;9.238;2023-04-03T02:08:24;98946.19;;;6.97;68.48
21824;BME280;11074;48.596;9.238;2023-04-03T02:10:50;98950.72;;;6.90;68.05
21824;BME280;11074;48.596;9.238;2023-04-03T02:13:17;98943.75;;;6.96;69.16
21824;BME280;11074;48.596;9.238;2023-04-03T02:15:43;98950.13;;;6.82;67.30
21824;BME280;11074;48.596;9.238;2023-04-03T02:18:09;98946.06;;;6.79;68.22
21824;BME280;11074;48.596;9.238;2023-04-03T02:20:35;98956.50;;;6.81;68.66
21824;BME280;11074;48.596;9.238;2023-04-03T02:23:01;98952.00;;;6.81;68.69
21824;BME280;11074;48.596;9.238;2023-04-03T02:25:27;98953.19;;;6.92;68.77
21824;BME280;11074;48.596;9.238;2023-04-03T02:27:53;98948.06;;;6.90;68.65
21824;BME280;11074;48.596;9.238;2023-04-03T02:30:18;98950.50;;;6.98;68.92
21824;BME280;11074;48.596;9.238;2023-04-03T02:32:44;98949.50;;;6.99;67.67
21824;BME280;11074;48.596;9.238;2023-04-03T02:35:11;98948.25;;;6.95;68.72
21824;BME280;11074;48.596;9.238;2023-04-03T02:37:37;98950.69;;;7.03;68.55
21824;BME280;11074;48.596;9.238;2023-04-03T02:40:04;98953.28;;;7.16;69.02
21824;BME280;11074;48.596;9.238;2023-04-03T02:42:30;98948.63;;;7.12;67.68
21824;BME280;11074;48.596;9.238;2023-04-03T02:44:56;98952.69;;;7.21;68.44
21824;BME280;11074;48.596;9.238;2023-04-03T02:47:22;98955.34;;;7.14;68.14
21824;BME280;11074;48.596;9.238;2023-04-03T02:49:47;98947.38;;;7.21;68.23
21824;BME280;11074;48.596;9.238;2023-04-03T02:52:14;98954.09;;;7.23;67.71
21824;BME280;11074;48.596;9.238;2023-04-03T02:54:40;98956.53;;;7.31;67.75
21824;BME280;11074;48.596;9.238;2023-04-03T02:57:06;98962.84;;;7.30;68.41
21824;BME280;11074;48.596;9.238;2023-04-03T02:59:37;98952.88;;;7.26;67.66
21824;BME280;11074;48.596;9.238;2023-04-03T03:02:08;98963.28;;;7.27;68.45
21824;BME280;11074;48.596;9.238;2023-04-03T03:04:34;98957.34;;;7.25;67.89
21824;BME280;11074;48.596;9.238;2023-04-03T03:07:00;98958.41;;;7.18;67.87
21824;BME280;11074;48.596;9.238;2023-04-03T03:09:26;98953.50;;;7.15;67.48
21824;BME280;11074;48.596;9.238;2023-04-03T03:11:52;98960.06;;;7.12;67.38
21824;BME280;11074;48.596;9.238;2023-04-03T03:14:18;98957.00;;;7.15;67.98
21824;BME280;11074;48.596;9.238;2023-04-03T03:16:44;98962.31;;;7.15;68.81
21824;BME280;11074;48.596;9.238;2023-04-03T03:19:09;98951.28;;;7.05;67.08
21824;BME280;11074;48.596;9.238;2023-04-03T03:21:35;98954.53;;;7.14;67.81
21824;BME280;11074;48.596;9.238;2023-04-03T03:24:01;98953.53;;;7.08;68.56
21824;BME280;11074;48.596;9.238;2023-04-03T03:26:27;98956.19;;;7.15;68.21
21824;BME280;11074;48.596;9.238;2023-04-03T03:28:53;98961.22;;;7.29;68.33
21824;BME280;11074;48.596;9.238;2023-04-03T03:31:19;98951.22;;;7.25;67.09
21824;BME280;11074;48.596;9.238;2023-04-03T03:33:45;98953.06;;;7.24;67.78
21824;BME280;11074;48.596;9.238;2023-04-03T03:36:10;98954.09;;;7.23;67.73
21824;BME280;11074;48.596;9.238;2023-04-03T03:38:36;98948.97;;;7.28;67.92
21824;BME280;11074;48.596;9.238;2023-04-03T03:41:02;98955.53;;;7.26;67.24
21824;BME280;11074;48.596;9.238;2023-04-03T03:43:28;98960.19;;;7.30;68.82
21824;BME280;11074;48.596;9.238;2023-04-03T03:45:54;98949.56;;;7.24;68.62
21824;BME280;11074;48.596;9.238;2023-04-03T03:48:21;98946.72;;;7.19;67.07
21824;BME280;11074;48.596;9.238;2023-04-03T03:50:48;98945.94;;;7.18;66.97
21824;BME280;11074;48.596;9.238;2023-04-03T03:53:14;98945.47;;;7.28;67.48
21824;BME280;11074;48.596;9.238;2023-04-03T03:55:40;98955.13;;;7.22;67.58
21824;BME280;11074;48.596;9.238;2023-04-03T03:58:06;98945.97;;;7.12;66.92
21824;BME280;11074;48.596;9.238;2023-04-03T04:00:33;98945.97;;;7.05;67.74
21824;BME280;11074;48.596;9.238;2023-04-03T04:02:58;98954.75;;;7.12;68.27
21824;BME280;11074;48.596;9.238;2023-04-03T04:05:24;98952.97;;;7.00;67.60
21824;BME280;11074;48.596;9.238;2023-04-03T04:07:50;98948.63;;;7.05;69.48
21824;BME280;11074;48.596;9.238;2023-04-03T04:10:16;98951.50;;;7.10;68.21
21824;BME280;11074;48.596;9.238;2023-04-03T04:12:42;98955.34;;;7.14;68.13
21824;BME280;11074;48.596;9.238;2023-04-03T04:15:08;98952.06;;;7.19;68.06
21824;BME280;11074;48.596;9.238;2023-04-03T04:17:34;98956.38;;;7.13;67.27
21824;BME280;11074;48.596;9.238;2023-04-03T04:20:02;98949.41;;;7.19;67.90
21824;BME280;11074;48.596;9.238;2023-04-03T04:22:28;98957.09;;;6.89;68.61
21824;BME280;11074;48.596;9.238;2023-04-03T04:24:53;98956.41;;;7.00;69.02
21824;BME280;11074;48.596;9.238;2023-04-03T04:27:19;98951.94;;;7.01;68.31
21824;BME280;11074;48.596;9.238;2023-04-03T04:29:45;98961.09;;;7.11;68.13
21824;BME280;11074;48.596;9.238;2023-04-03T04:32:11;98949.44;;;7.12;67.76
21824;BME280;11074;48.596;9.238;2023-04-03T04:34:36;98949.88;;;7.03;67.71
21824;BME280;11074;48.596;9.238;2023-04-03T04:37:02;98945.97;;;7.05;68.30
21824;BME280;11074;48.596;9.238;2023-04-03T04:39:28;98956.19;;;7.08;68.10
21824;BME280;11074;48.596;9.238;2023-04-03T04:41:53;98945.19;;;7.05;67.42
21824;BME280;11074;48.596;9.238;2023-04-03T04:44:19;98952.75;;;7.08;66.63
21824;BME280;11074;48.596;9.238;2023-04-03T04:46:45;98951.91;;;7.07;67.11
21824;BME280;11074;48.596;9.238;2023-04-03T04:49:11;98953.94;;;7.05;67.68
21824;BME280;11074;48.596;9.238;2023-04-03T04:51:37;98954.94;;;7.11;66.88
21824;BME280;11074;48.596;9.238;2023-04-03T04:54:02;98956.81;;;7.10;66.76
21824;BME280;11074;48.596;9.238;2023-04-03T04:56:28;98957.41;;;7.06;66.16
21824;BME280;11074;48.596;9.238;2023-04-03T04:58:54;98958.47;;;7.05;65.40
21824;BME280;11074;48.596;9.238;2023-04-03T05:01:19;98955.19;;;7.03;65.85
21824;BME280;11074;48.596;9.238;2023-04-03T05:03:45;98961.13;;;7.05;64.45
21824;BME280;11074;48.596;9.238;2023-04-03T05:06:11;98960.94;;;6.87;66.24
21824;BME280;11074;48.596;9.238;2023-04-03T05:08:37;98959.53;;;6.91;64.38
21824;BME280;11074;48.596;9.238;2023-04-03T05:11:02;98962.38;;;7.02;64.82
21824;BME280;11074;48.596;9.238;2023-04-03T05:13:28;98966.84;;;7.02;64.72
21824;BME280;11074;48.596;9.238;2023-04-03T05:15:54;98970.94;;;7.04;64.40
21824;BME280;11074;48.596;9.238;2023-04-03T05:18:19;98970.09;;;7.10;64.28
21824;BME280;11074;48.596;9.238;2023-04-03T05:20:48;98966.03;;;7.01;63.21
21824;BME280;11074;48.596;9.238;2023-04-03T05:23:14;98974.00;;;7.08;64.59
21824;BME280;11074;48.596;9.238;2023-04-03T05:25:40;98975.84;;;7.01;63.11
21824;BME280;11074;48.596;9.238;2023-04-03T05:28:06;98983.84;;;6.88;60.36
21824;BME280;11074;48.596;9.238;2023-04-03T05:30:32;98977.53;;;6.89;64.37
21824;BME280;11074;48.596;9.238;2023-04-03T05:32:59;98977.53;;;6.82;64.42
21824;BME280;11074;48.596;9.238;2023-04-03T05:35:24;98976.31;;;6.78;62.67
21824;BME280;11074;48.596;9.238;2023-04-03T05:37:50;98978.13;;;6.84;64.42
21824;BME280;11074;48.596;9.238;2023-04-03T05:40:16;98980.56;;;6.92;63.06
21824;BME280;11074;48.596;9.238;2023-04-03T05:42:42;98973.41;;;6.99;64.07
21824;BME280;11074;48.596;9.238;2023-04-03T05:45:07;98979.31;;;7.08;63.89
21824;BME280;11074;48.596;9.238;2023-04-03T05:47:33;98974.97;;;7.13;62.84
21824;BME280;11074;48.596;9.238;2023-04-03T05:49:59;98984.63;;;7.08;62.09
21824;BME280;11074;48.596;9.238;2023-04-03T05:52:30;98980.97;;;7.02;61.52
21824;BME280;11074;48.596;9.238;2023-04-03T05:54:57;98988.50;;;7.05;62.20
21824;BME280;11074;48.596;9.238;2023-04-03T05:57:23;98994.44;;;7.07;62.78
21824;BME280;11074;48.596;9.238;2023-04-03T05:59:49;98998.72;;;7.08;63.43
21824;BME280;11074;48.596;9.238;2023-04-03T06:02:21;98991.16;;;7.05;61.68
21824;BME280;11074;48.596;9.238;2023-04-03T06:04:47;98995.88;;;7.03;63.00
21824;BME280;11074;48.596;9.238;2023-04-03T06:07:17;99000.00;;;6.99;63.09
21824;BME280;11074;48.596;9.238;2023-04-03T06:09:44;99009.41;;;6.89;62.88
21824;BME280;11074;48.596;9.238;2023-04-03T06:12:10;99000.00;;;6.99;62.74
21824;BME280;11074;48.596;9.238;2023-04-03T06:14:36;99003.66;;;6.98;63.50
21824;BME280;11074;48.596;9.238;2023-04-03T06:17:03;98999.34;;;6.97;62.13
21824;BME280;11074;48.596;9.238;2023-04-03T06:19:29;99007.34;;;6.97;61.60
21824;BME280;11074;48.596;9.238;2023-04-03T06:21:55;99012.69;;;6.91;62.43
21824;BME280;11074;48.596;9.238;2023-04-03T06:24:22;99012.88;;;7.02;63.27
21824;BME280;11074;48.596;9.238;2023-04-03T06:26:50;99011.63;;;7.05;62.50
21824;BME280;11074;48.596;9.238;2023-04-03T06:29:17;99008.34;;;7.03;62.46
21824;BME280;11074;48.596;9.238;2023-04-03T06:31:43;99014.09;;;7.00;62.45
21824;BME280;11074;48.596;9.238;2023-04-03T06:34:10;99018.41;;;6.94;63.84
21824;BME280;11074;48.596;9.238;2023-04-03T06:36:37;99016.31;;;7.03;63.34
21824;BME280;11074;48.596;9.238;2023-04-03T06:39:03;99012.25;;;7.07;63.15
21824;BME280;11074;48.596;9.238;2023-04-03T06:41:29;99026.53;;;7.06;63.69
21824;BME280;11074;48.596;9.238;2023-04-03T06:43:54;99019.19;;;7.01;62.80
21824;BME280;11074;48.596;9.238;2023-04-03T06:46:22;99025.53;;;7.00;63.80
21824;BME280;11074;48.596;9.238;2023-04-03T06:48:49;99021.22;;;7.06;62.42
21824;BME280;11074;48.596;9.238;2023-04-03T06:51:25;99026.72;;;7.11;62.29
21824;BME280;11074;48.596;9.238;2023-04-03T06:53:53;99029.00;;;7.01;61.18
21824;BME280;11074;48.596;9.238;2023-04-03T06:56:20;99022.69;;;6.95;62.99
21824;BME280;11074;48.596;9.238;2023-04-03T06:58:46;99023.28;;;6.97;63.15
21824;BME280;11074;48.596;9.238;2023-04-03T07:01:17;99027.41;;;7.00;62.25
21824;BME280;11074;48.596;9.238;2023-04-03T07:03:45;99032.72;;;7.00;61.68
21824;BME280;11074;48.596;9.238;2023-04-03T07:06:14;99029.41;;;7.04;63.00
21824;BME280;11074;48.596;9.238;2023-04-03T07:08:40;99038.00;;;7.06;61.92
21824;BME280;11074;48.596;9.238;2023-04-03T07:11:06;99034.75;;;7.04;63.40
21824;BME280;11074;48.596;9.238;2023-04-03T07:13:32;99029.78;;;7.14;63.46
21824;BME280;11074;48.596;9.238;2023-04-03T07:15:58;99031.63;;;7.14;61.97
21824;BME280;11074;48.596;9.238;2023-04-03T07:18:25;99033.28;;;7.15;62.24
21824;BME280;11074;48.596;9.238;2023-04-03T07:20:51;99036.56;;;7.04;62.42
21824;BME280;11074;48.596;9.238;2023-04-03T07:23:17;99030.44;;;7.03;62.79
21824;BME280;11074;48.596;9.238;2023-04-03T07:25:44;99044.09;;;7.20;62.91
21824;BME280;11074;48.596;9.238;2023-04-03T07:28:11;99036.72;;;7.22;62.93
21824;BME280;11074;48.596;9.238;2023-04-03T07:30:50;99042.69;;;7.17;61.98
21824;BME280;11074;48.596;9.238;2023-04-03T07:33:18;99040.84;;;7.11;64.20
21824;BME280;11074;48.596;9.238;2023-04-03T07:35:45;99040.19;;;7.29;62.81
21824;BME280;11074;48.596;9.238;2023-04-03T07:38:11;99038.31;;;7.36;63.96
21824;BME280;11074;48.596;9.238;2023-04-03T07:40:38;99046.09;;;7.38;62.35
21824;BME280;11074;48.596;9.238;2023-04-03T07:43:04;99038.28;;;7.43;62.96
21824;BME280;11074;48.596;9.238;2023-04-03T07:45:31;99044.66;;;7.42;62.80
21824;BME280;11074;48.596;9.238;2023-04-03T07:47:57;99042.75;;;7.55;63.56
21824;BME280;11074;48.596;9.238;2023-04-03T07:50:23;99047.66;;;7.58;62.01
21824;BME280;11074;48.596;9.238;2023-04-03T07:52:49;99056.84;;;7.69;62.63
21824;BME280;11074;48.596;9.238;2023-04-03T07:55:16;99050.34;;;7.58;62.19
21824;BME280;11074;48.596;9.238;2023-04-03T07:57:42;99045.97;;;7.64;61.50
21824;BME280;11074;48.596;9.238;2023-04-03T08:00:09;99051.69;;;7.74;60.81
21824;BME280;11074;48.596;9.238;2023-04-03T08:02:35;99051.41;;;7.88;63.54
21824;BME280;11074;48.596;9.238;2023-04-03T08:05:01;99061.84;;;7.90;61.08
21824;BME280;11074;48.596;9.238;2023-04-03T08:07:26;99054.88;;;7.89;60.71
21824;BME280;11074;48.596;9.238;2023-04-03T08:09:52;99052.81;;;7.91;60.77
21824;BME280;11074;48.596;9.238;2023-04-03T08:12:18;99062.03;;;7.88;61.00
21824;BME280;11074;48.596;9.238;2023-04-03T08:14:44;99056.88;;;8.00;62.05
21824;BME280;11074;48.596;9.238;2023-04-03T08:17:10;99061.22;;;7.88;62.17
21824;BME280;11074;48.596;9.238;2023-04-03T08:19:38;99063.09;;;7.87;61.90
21824;BME280;11074;48.596;9.238;2023-04-03T08:22:05;99059.97;;;7.97;61.06
21824;BME280;11074;48.596;9.238;2023-04-03T08:24:33;99056.78;;;8.13;61.97
21824;BME280;11074;48.596;9.238;2023-04-03T08:27:00;99060.22;;;8.20;60.11
21824;BME280;11074;48.596;9.238;2023-04-03T08:29:26;99055.25;;;8.30;60.59
21824;BME280;11074;48.596;9.238;2023-04-03T08:31:52;99064.06;;;8.37;61.52
21824;BME280;11074;48.596;9.238;2023-04-03T08:34:19;99065.66;;;8.38;59.51
21824;BME280;11074;48.596;9.238;2023-04-03T08:36:45;99063.00;;;8.38;59.33
21824;BME280;11074;48.596;9.238;2023-04-03T08:39:12;99066.31;;;8.34;58.71
21824;BME280;11074;48.596;9.238;2023-04-03T08:41:43;99064.25;;;8.36;60.06
21824;BME280;11074;48.596;9.238;2023-04-03T08:44:25;99060.78;;;8.35;61.25
21824;BME280;11074;48.596;9.238;2023-04-03T08:47:18;99069.31;;;8.44;59.46
21824;BME280;11074;48.596;9.238;2023-04-03T08:49:55;99066.94;;;8.61;61.13
21824;BME280;11074;48.596;9.238;2023-04-03T08:52:55;99063.16;;;8.75;60.81
21824;BME280;11074;48.596;9.238;2023-04-03T08:55:46;99061.41;;;8.62;58.89
21824;BME280;11074;48.596;9.238;2023-04-03T08:58:30;99075.34;;;8.64;57.90
21824;BME280;11074;48.596;9.238;2023-04-03T09:01:17;99073.69;;;8.63;57.18
21824;BME280;11074;48.596;9.238;2023-04-03T09:03:44;99074.75;;;8.62;58.82
21824;BME280;11074;48.596;9.238;2023-04-03T09:06:32;99074.91;;;8.67;59.37
21824;BME280;11074;48.596;9.238;2023-04-03T09:09:23;99075.00;;;8.54;58.77
21824;BME280;11074;48.596;9.238;2023-04-03T09:20:36;99073.03;;;8.68;57.76
21824;BME280;11074;48.596;9.238;2023-04-03T09:23:29;99068.09;;;8.71;58.87
21824;BME280;11074;48.596;9.238;2023-04-03T09:26:14;99075.81;;;8.79;56.90
21824;BME280;11074;48.596;9.238;2023-04-03T09:28:43;99067.09;;;8.66;58.40
21824;BME280;11074;48.596;9.238;2023-04-03T09:31:22;99065.31;;;8.84;57.37
21824;BME280;11074;48.596;9.238;2023-04-03T09:33:53;99072.81;;;8.94;59.24
21824;BME280;11074;48.596;9.238;2023-04-03T09:36:45;99061.34;;;8.93;57.90
21824;BME280;11074;48.596;9.238;2023-04-03T09:39:20;99063.72;;;9.01;57.26
21824;BME280;11074;48.596;9.238;2023-04-03T09:42:02;99073.72;;;9.06;57.76
21824;BME280;11074;48.596;9.238;2023-04-03T09:44:33;99064.28;;;9.10;57.22
21824;BME280;11074;48.596;9.238;2023-04-03T09:46:59;99060.97;;;9.08;55.96
21824;BME280;11074;48.596;9.238;2023-04-03T09:49:42;99064.69;;;9.07;56.48
21824;BME280;11074;48.596;9.238;2023-04-03T09:52:26;99065.97;;;9.04;55.68
21824;BME280;11074;48.596;9.238;2023-04-03T09:54:52;99061.50;;;8.98;55.42
21824;BME280;11074;48.596;9.238;2023-04-03T09:57:18;99067.41;;;9.00;55.10
21824;BME280;11074;48.596;9.238;2023-04-03T10:00:00;99068.53;;;8.93;53.73
21824;BME280;11074;48.596;9.238;2023-04-03T10:02:40;99059.25;;;8.95;55.03
21824;BME280;11074;48.596;9.238;2023-04-03T10:05:38;99053.22;;;8.82;56.26
21824;BME280;11074;48.596;9.238;2023-04-03T10:10:48;99061.34;;;8.93;56.98
21824;BME280;11074;48.596;9.238;2023-04-03T10:13:20;99057.03;;;8.92;53.35
21824;BME280;11074;48.596;9.238;2023-04-03T10:16:03;99055.13;;;8.99;55.37
21824;BME280;11074;48.596;9.238;2023-04-03T10:21:38;99056.22;;;8.92;53.11
21824;BME280;11074;48.596;9.238;2023-04-03T10:24:26;99055.72;;;9.01;54.60
21824;BME280;11074;48.596;9.238;2023-04-03T10:27:12;99056.53;;;9.02;53.28
21824;BME280;11074;48.596;9.238;2023-04-03T10:30:22;99049.88;;;9.11;53.07
21824;BME280;11074;48.596;9.238;2023-04-03T10:33:20;99051.66;;;9.17;53.73
21824;BME280;11074;48.596;9.238;2023-04-03T10:36:34;99046.09;;;9.19;53.16
21824;BME280;11074;48.596;9.238;2023-04-03T10:50:35;99041.38;;;9.21;50.75
21824;BME280;11074;48.596;9.238;2023-04-03T10:56:37;99041.53;;;9.26;51.22
21824;BME280;11074;48.596;9.238;2023-04-03T11:02:54;99039.97;;;9.36;50.79
21824;BME280;11074;48.596;9.238;2023-04-03T11:05:43;99040.28;;;9.28;50.02
21824;BME280;11074;48.596;9.238;2023-04-03T11:08:44;99044.84;;;9.21;48.64
21824;BME280;11074;48.596;9.238;2023-04-03T11:11:27;99038.63;;;9.27;49.21
21824;BME280;11074;48.596;9.238;2023-04-03T11:14:04;99041.44;;;9.32;50.12
21824;BME280;11074;48.596;9.238;2023-04-03T11:16:37;99038.53;;;9.15;49.37
21824;BME280;11074;48.596;9.238;2023-04-03T11:19:34;99047.16;;;9.18;51.53
21824;BME280;11074;48.596;9.238;2023-04-03T11:22:32;99042.25;;;9.14;51.65
21824;BME280;11074;48.596;9.238;2023-04-03T11:27:56;99043.75;;;9.29;49.66
21824;BME280;11074;48.596;9.238;2023-04-03T11:30:33;99036.88;;;9.39;50.98
21824;BME280;11074;48.596;9.238;2023-04-03T11:36:50;99033.59;;;9.37;49.49
21824;BME280;11074;48.596;9.238;2023-04-03T11:39:35;99034.63;;;9.36;48.93
21824;BME280;11074;48.596;9.238;2023-04-03T11:42:36;99029.34;;;9.30;50.97
21824;BME280;11074;48.596;9.238;2023-04-03T12:19:34;99001.34;;;9.87;50.01
21824;BME280;11074;48.596;9.238;2023-04-03T12:24:33;98994.88;;;9.94;50.09
21824;BME280;11074;48.596;9.238;2023-04-03T12:27:17;99002.44;;;9.97;48.97
21824;BME280;11074;48.596;9.238;2023-04-03T12:32:54;98995.06;;;9.93;48.07
21824;BME280;11074;48.596;9.238;2023-04-03T12:35:37;98997.16;;;9.91;48.75
21824;BME280;11074;48.596;9.238;2023-04-03T12:38:39;98988.13;;;9.92;46.87
21824;BME280;11074;48.596;9.238;2023-04-03T12:41:57;98992.56;;;9.98;48.18
21824;BME280;11074;48.596;9.238;2023-04-03T12:44:53;98991.63;;;10.04;48.49
21824;BME280;11074;48.596;9.238;2023-04-03T12:47:34;98993.84;;;10.07;48.19
21824;BME280;11074;48.596;9.238;2023-04-03T12:50:17;99000.00;;;10.07;47.01
21824;BME280;11074;48.596;9.238;2023-04-03T12:52:52;98990.88;;;10.15;48.62
21824;BME280;11074;48.596;9.238;2023-04-03T12:55:20;98997.53;;;9.94;46.75
21824;BME280;11074;48.596;9.238;2023-04-03T12:57:47;98989.53;;;9.94;49.21
21824;BME280;11074;48.596;9.238;2023-04-03T13:00:30;98984.25;;;9.88;49.55
21824;BME280;11074;48.596;9.238;2023-04-03T13:03:00;98993.78;;;9.84;49.83
21824;BME280;11074;48.596;9.238;2023-04-03T13:05:27;98987.66;;;9.65;49.08
21824;BME280;11074;48.596;9.238;2023-04-03T13:08:05;98984.91;;;9.71;48.08
21824;BME280;11074;48.596;9.238;2023-04-03T13:10:32;98984.69;;;9.73;48.90
21824;BME280;11074;48.596;9.238;2023-04-03T13:13:10;98988.75;;;9.75;48.29
21824;BME280;11074;48.596;9.238;2023-04-03T13:15:47;98985.84;;;9.77;46.77
21824;BME280;11074;48.596;9.238;2023-04-03T13:18:31;98984.88;;;10.01;48.17
21824;BME280;11074;48.596;9.238;2023-04-03T13:21:05;98986.06;;;10.05;48.56
21824;BME280;11074;48.596;9.238;2023-04-03T13:23:36;98986.75;;;10.01;49.00
21824;BME280;11074;48.596;9.238;2023-04-03T13:26:05;98988.84;;;9.99;46.74
21824;BME280;11074;48.596;9.238;2023-04-03T13:28:33;98979.53;;;10.01;46.36
21824;BME280;11074;48.596;9.238;2023-04-03T13:31:34;98990.72;;;10.10;47.64
21824;BME280;11074;48.596;9.238;2023-04-03T13:34:07;98983.16;;;9.95;46.69
21824;BME280;11074;48.596;9.238;2023-04-03T13:36:40;98980.25;;;9.97;47.54
21824;BME280;11074;48.596;9.238;2023-04-03T13:41:42;98975.41;;;9.75;46.95
21824;BME280;11074;48.596;9.238;2023-04-03T13:46:48;98974.31;;;9.65;45.01
21824;BME280;11074;48.596;9.238;2023-04-03T13:51:54;98973.06;;;9.67;47.47
21824;BME280;11074;48.596;9.238;2023-04-03T13:54:35;98970.56;;;9.84;48.98
21824;BME280;11074;48.596;9.238;2023-04-03T13:57:02;98974.91;;;9.97;47.05
21824;BME280;11074;48.596;9.238;2023-04-03T13:59:35;98973.63;;;9.99;47.23
21824;BME280;11074;48.596;9.238;2023-04-03T14:04:54;98965.66;;;10.11;47.67
21824;BME280;11074;48.596;9.238;2023-04-03T14:07:25;98962.31;;;10.15;46.43
21824;BME280;11074;48.596;9.238;2023-04-03T14:09:52;98962.78;;;10.12;47.14
21824;BME280;11074;48.596;9.238;2023-04-03T14:12:24;98976.13;;;10.12;45.97
21824;BME280;11074;48.596;9.238;2023-04-03T14:14:52;98968.78;;;10.08;47.58
21824;BME280;11074;48.596;9.238;2023-04-03T14:17:23;98966.75;;;10.21;48.42
21824;BME280;11074;48.596;9.238;2023-04-03T14:19:51;98958.03;;;10.26;45.57
21824;BME280;11074;48.596;9.238;2023-04-03T14:22:23;98960.38;;;10.34;46.63
21824;BME280;11074;48.596;9.238;2023-04-03T14:24:51;98957.25;;;10.37;45.76
21824;BME280;11074;48.596;9.238;2023-04-03T14:27:44;98952.34;;;10.34;45.29
21824;BME280;11074;48.596;9.238;2023-04-03T14:30:17;98951.91;;;10.37;46.07
21824;BME280;11074;48.596;9.238;2023-04-03T14:32:44;98955.72;;;10.29;44.77
21824;BME280;11074;48.596;9.238;2023-04-03T14:35:10;98944.91;;;10.24;45.89
21824;BME280;11074;48.596;9.238;2023-04-03T14:37:36;98944.66;;;10.14;46.45
21824;BME280;11074;48.596;9.238;2023-04-03T14:40:04;98943.56;;;10.04;45.79
21824;BME280;11074;48.596;9.238;2023-04-03T14:42:34;98944.69;;;9.96;46.98
21824;BME280;11074;48.596;9.238;2023-04-03T14:45:04;98940.94;;;9.86;46.59
21824;BME280;11074;48.596;9.238;2023-04-03T14:47:31;98946.75;;;9.83;46.82
21824;BME280;11074;48.596;9.238;2023-04-03T14:50:00;98938.59;;;9.77;45.86
21824;BME280;11074;48.596;9.238;2023-04-03T14:52:33;98937.66;;;9.72;47.65
21824;BME280;11074;48.596;9.238;2023-04-03T14:55:00;98936.84;;;9.71;47.19
21824;BME280;11074;48.596;9.238;2023-04-03T14:57:29;98933.19;;;9.84;47.32
21824;BME280;11074;48.596;9.238;2023-04-03T14:59:55;98935.03;;;9.84;46.39